Time;durP1;ratioP1;P1;durP2;ratioP2;P2;SDS_P1;SDS_P2;PMS_P1;PMS_P2;Temp;Humidity;BMP_temperature;BMP_pressure;BME280_temperature;BME280_humidity;BME280_pressure;Samples;Min_cycle;Max_cycle;Signal;HPM_P1;HPM_P2
2024/03/14 00:01:06;;;;;;;;;;;11.50;99.90;;;11.55;80.05;100359.69;4927070;29;19932;-82
2024/03/14 00:03:36;;;;;;;;;;;11.50;99.90;;;11.52;79.60;100351.31;4942614;29;19927;-82
2024/03/14 00:06:08;;;;;;;;;;;11.50;99.90;;;11.51;79.70;100349.66;4943767;29;19948;-82
2024/03/14 00:08:36;;;;;;;;;;;11.50;99.90;;;11.52;79.98;100360.16;4943210;29;20674;-82
2024/03/14 00:11:06;;;;;;;;;;;11.50;99.90;;;11.54;80.15;100354.56;4926394;29;19954;-82
2024/03/14 00:13:34;;;;;;;;;;;11.50;99.90;;;11.54;80.10;100354.56;4942711;29;19931;-82
2024/03/14 00:16:05;;;;;;;;;;;11.50;99.90;;;11.56;80.08;100360.50;4943180;29;19969;-82
2024/03/14 00:18:32;;;;;;;;;;;11.50;99.90;;;11.50;80.09;100358.72;4942477;29;19981;-81
2024/03/14 00:21:00;;;;;;;;;;;11.50;99.90;;;11.52;80.30;100362.81;4942407;29;19930;-82
2024/03/14 00:23:28;;;;;;;;;;;11.50;99.90;;;11.51;80.44;100360.34;4942387;29;19926;-82
2024/03/14 00:25:56;;;;;;;;;;;11.50;99.90;;;11.54;80.16;100359.91;4926587;29;19927;-82
2024/03/14 00:28:25;;;;;;;;;;;11.50;99.90;;;11.56;80.61;100360.50;4941810;29;19926;-82
2024/03/14 00:30:52;;;;;;;;;;;11.50;99.90;;;11.57;80.39;100354.97;4926499;29;19964;-82
2024/03/14 00:33:19;;;;;;;;;;;11.50;99.90;;;11.58;80.65;100353.09;4943277;29;19974;-82
2024/03/14 00:35:47;;;;;;;;;;;11.50;99.90;;;11.55;80.46;100346.34;4941800;29;19927;-82
2024/03/14 00:38:14;;;;;;;;;;;11.50;99.90;;;11.52;80.32;100349.47;4942445;29;20459;-82
2024/03/14 00:40:43;;;;;;;;;;;11.50;99.90;;;11.55;80.26;100354.34;4926251;29;19930;-82
2024/03/14 00:43:10;;;;;;;;;;;11.50;99.90;;;11.50;79.81;100345.38;4943462;29;19930;-82
2024/03/14 00:45:39;;;;;;;;;;;11.50;99.90;;;11.51;80.09;100344.31;4941979;29;20028;-82
2024/03/14 00:48:07;;;;;;;;;;;11.50;99.90;;;11.48;80.11;100342.09;4942065;29;19927;-82
2024/03/14 00:50:36;;;;;;;;;;;11.50;99.90;;;11.46;80.22;100336.97;4942990;29;19926;-82
2024/03/14 00:53:04;;;;;;;;;;;11.50;99.90;;;11.49;79.86;100341.06;4942293;29;19934;-82
2024/03/14 00:55:31;;;;;;;;;;;11.50;99.90;;;11.49;80.24;100343.75;4941094;29;19926;-81
2024/03/14 00:58:00;;;;;;;;;;;11.50;99.90;;;11.51;80.07;100341.66;4940997;29;19930;-82
2024/03/14 01:00:29;;;;;;;;;;;11.50;99.90;;;11.50;80.01;100345.38;4941445;29;19966;-81
2024/03/14 01:02:57;;;;;;;;;;;11.50;99.90;;;11.53;80.33;100340.41;4942200;29;19974;-82
2024/03/14 01:05:24;;;;;;;;;;;11.50;99.90;;;11.57;80.30;100330.09;4929584;29;19926;-82
2024/03/14 01:07:52;;;;;;;;;;;11.50;99.90;;;11.54;80.39;100336.69;4944991;29;19926;-81
2024/03/14 01:10:19;;;;;;;;;;;11.50;99.90;;;11.50;80.30;100340.03;4929706;29;19927;-82
2024/03/14 01:12:47;;;;;;;;;;;11.50;99.90;;;11.51;80.19;100333.63;4945843;29;19926;-82
2024/03/14 01:15:16;;;;;;;;;;;11.50;99.90;;;11.49;79.91;100336.53;4929302;29;19927;-82
2024/03/14 01:17:43;;;;;;;;;;;11.50;99.90;;;11.46;80.00;100333.47;4945511;29;19934;-82
2024/03/14 01:20:11;;;;;;;;;;;11.50;99.90;;;11.48;80.02;100334.09;4945735;29;19930;-82
2024/03/14 01:22:39;;;;;;;;;;;11.50;99.90;;;11.44;79.83;100330.22;4944891;29;20412;-82
2024/03/14 01:25:06;;;;;;;;;;;11.50;99.90;;;11.44;80.19;100323.03;4945618;29;19950;-82
2024/03/14 01:27:34;;;;;;;;;;;11.50;99.90;;;11.46;80.06;100323.63;4945848;29;19981;-81
2024/03/14 01:30:01;;;;;;;;;;;11.50;99.90;;;11.44;79.89;100320.38;4945959;29;19954;-82
2024/03/14 01:32:28;;;;;;;;;;;11.50;99.90;;;11.45;79.93;100316.66;4945923;29;19938;-81
2024/03/14 01:34:55;;;;;;;;;;;11.50;99.90;;;11.49;80.18;100320.50;4945643;29;19927;-82
2024/03/14 01:37:24;;;;;;;;;;;11.50;99.90;;;11.52;80.49;100320.09;4944918;29;19931;-82
2024/03/14 01:39:52;;;;;;;;;;;11.50;99.90;;;11.48;80.27;100318.06;4929533;29;20302;-82
2024/03/14 01:42:19;;;;;;;;;;;11.50;99.90;;;11.49;79.69;100317.03;4944959;29;19982;-82
2024/03/14 01:45:06;;;;;;;;;;;11.40;99.90;;;11.50;79.97;100308.78;4929783;29;20281;-82
2024/03/14 01:47:33;;;;;;;;;;;11.40;99.90;;;11.45;79.77;100308.63;4944728;29;20307;-82
2024/03/14 01:50:01;;;;;;;;;;;11.40;99.90;;;11.44;80.10;100301.66;4945298;29;19974;-81
2024/03/14 01:52:34;;;;;;;;;;;11.40;99.90;;;11.44;79.98;100293.66;4945413;29;19997;-81
2024/03/14 01:55:02;;;;;;;;;;;11.40;99.90;;;11.45;80.07;100299.81;4946357;29;19930;-82
2024/03/14 01:57:32;;;;;;;;;;;11.40;99.90;;;11.44;79.89;100307.00;4929228;29;20021;-82
2024/03/14 02:00:00;;;;;;;;;;;11.40;99.90;;;11.44;79.85;100295.50;4929193;29;19950;-81
2024/03/14 02:02:40;;;;;;;;;;;11.40;99.90;;;11.43;80.03;100299.22;4945660;29;19930;-82
2024/03/14 02:05:10;;;;;;;;;;;11.30;99.90;;;11.42;80.21;100298.41;4944314;29;19926;-82
2024/03/14 02:07:38;;;;;;;;;;;11.30;99.90;;;11.40;79.78;100297.00;4945198;29;19949;-82
2024/03/14 02:10:06;;;;;;;;;;;11.30;99.90;;;11.40;79.53;100308.47;4945141;29;19977;-82
2024/03/14 02:12:34;;;;;;;;;;;11.30;99.90;;;11.38;79.46;100299.88;4928845;29;20367;-82
2024/03/14 02:15:07;;;;;;;;;;;11.30;99.90;;;11.35;79.25;100303.81;4944812;29;19946;-82
2024/03/14 02:17:34;;;;;;;;;;;11.20;99.90;;;11.36;79.47;100296.59;4945179;29;19926;-82
2024/03/14 02:20:04;;;;;;;;;;;11.20;99.90;;;11.28;79.20;100295.06;4945358;29;20387;-82
2024/03/14 02:22:31;;;;;;;;;;;11.20;99.90;;;11.31;79.62;100286.59;4943897;29;19933;-82
2024/03/14 02:24:58;;;;;;;;;;;11.20;99.90;;;11.30;79.29;100286.81;4944231;29;20662;-82
2024/03/14 02:27:26;;;;;;;;;;;11.20;99.90;;;11.31;79.67;100289.25;4943977;29;19927;-81
2024/03/14 02:29:53;;;;;;;;;;;11.20;99.90;;;11.27;79.40;100280.06;4943749;29;19926;-82
2024/03/14 02:32:21;;;;;;;;;;;11.20;99.90;;;11.29;79.46;100286.00;4943306;29;19936;-82
2024/03/14 02:34:49;;;;;;;;;;;11.20;99.90;;;11.29;79.45;100285.19;4943858;29;19930;-82
2024/03/14 02:37:16;;;;;;;;;;;11.20;99.90;;;11.28;79.31;100280.88;4944456;29;19981;-83
2024/03/14 02:39:44;;;;;;;;;;;11.20;99.90;;;11.27;79.41;100280.06;4928780;29;19978;-83
2024/03/14 02:42:12;;;;;;;;;;;11.20;99.90;;;11.29;79.54;100279.84;4944015;29;19985;-82
2024/03/14 02:44:39;;;;;;;;;;;11.10;99.90;;;11.28;79.46;100281.69;4946480;29;20425;-83
2024/03/14 02:47:07;;;;;;;;;;;11.10;99.90;;;11.27;79.05;100277.41;4931004;29;19926;-83
2024/03/14 02:49:34;;;;;;;;;;;11.10;99.90;;;11.26;79.12;100275.75;4943646;29;19931;-83
2024/03/14 02:52:01;;;;;;;;;;;11.10;99.90;;;11.24;79.29;100269.81;4943384;29;20395;-83
2024/03/14 02:54:31;;;;;;;;;;;11.10;99.90;;;11.21;78.95;100266.78;4943344;29;19931;-82
2024/03/14 02:56:58;;;;;;;;;;;11.10;99.90;;;11.20;78.98;100265.16;4943194;29;19931;-83
2024/03/14 02:59:25;;;;;;;;;;;11.00;99.90;;;11.18;79.01;100265.38;4927333;29;19927;-83
2024/03/14 03:01:54;;;;;;;;;;;11.00;99.90;;;11.18;79.16;100267.22;4942591;29;19931;-82
2024/03/14 03:04:21;;;;;;;;;;;11.00;99.90;;;11.18;79.14;100262.72;4938587;29;19931;-83
2024/03/14 03:06:53;;;;;;;;;;;11.00;99.90;;;11.15;79.06;100260.47;4938422;29;19934;-82
2024/03/14 03:09:22;;;;;;;;;;;11.00;99.90;;;11.15;79.12;100262.31;4938689;29;19934;-82
2024/03/14 03:11:49;;;;;;;;;;;11.00;99.90;;;11.13;79.19;100256.41;4938308;29;19931;-82
2024/03/14 03:14:16;;;;;;;;;;;10.90;99.90;;;11.12;79.19;100258.22;4922606;29;19927;-82
2024/03/14 03:16:44;;;;;;;;;;;10.90;99.90;;;11.09;79.24;100259.50;4938606;29;19931;-82
2024/03/14 03:19:11;;;;;;;;;;;10.90;99.90;;;11.08;79.13;100252.53;4922260;29;20007;-81
2024/03/14 03:21:40;;;;;;;;;;;10.90;99.90;;;11.07;79.03;100253.53;4938453;29;19973;-81
2024/03/14 03:24:07;;;;;;;;;;;10.80;99.90;;;11.06;79.00;100259.94;4938611;29;19933;-82
2024/03/14 03:26:36;;;;;;;;;;;10.80;99.90;;;11.05;78.92;100250.28;4938292;28;19986;-82
2024/03/14 03:29:02;;;;;;;;;;;10.80;99.90;;;11.04;78.56;100254.00;4938153;29;20007;-83
2024/03/14 03:31:34;;;;;;;;;;;10.80;99.90;;;11.03;78.84;100252.38;4937684;29;19946;-82
2024/03/14 03:34:01;;;;;;;;;;;10.80;99.90;;;11.03;78.73;100243.56;4937758;29;20000;-81
2024/03/14 03:36:29;;;;;;;;;;;10.80;99.90;;;11.02;78.76;100253.38;4922093;29;20479;-82
2024/03/14 03:38:56;;;;;;;;;;;10.80;99.90;;;11.02;78.62;100249.91;4938062;29;19926;-81
2024/03/14 03:41:24;;;;;;;;;;;10.80;99.90;;;11.01;78.79;100248.28;4937914;29;19933;-83
2024/03/14 03:43:51;;;;;;;;;;;10.70;99.90;;;11.01;78.56;100245.59;4938019;29;19927;-82
2024/03/14 03:46:19;;;;;;;;;;;10.70;99.90;;;10.98;78.61;100235.38;4938241;29;20003;-81
2024/03/14 03:48:46;;;;;;;;;;;10.70;99.90;;;10.98;78.62;100243.38;4937758;29;19926;-83
2024/03/14 03:51:14;;;;;;;;;;;10.70;99.90;;;10.95;78.35;100238.50;4921714;29;19926;-83
2024/03/14 03:53:40;;;;;;;;;;;10.70;99.90;;;10.94;78.37;100236.88;4938192;29;19931;-81
2024/03/14 03:56:07;;;;;;;;;;;10.70;99.90;;;10.90;78.17;100239.16;4922387;29;20367;-81
2024/03/14 03:58:34;;;;;;;;;;;10.70;99.90;;;10.91;78.23;100227.44;4937950;29;19931;-81
2024/03/14 04:01:06;;;;;;;;;;;10.70;99.90;;;10.88;78.05;100227.03;4938090;29;19974;-81
2024/03/14 04:03:33;;;;;;;;;;;10.70;99.90;;;10.85;78.32;100225.66;4938078;29;19933;-81
2024/03/14 04:06:02;;;;;;;;;;;10.60;99.90;;;10.87;78.39;100230.75;4938750;29;19934;-82
2024/03/14 04:08:30;;;;;;;;;;;10.70;99.90;;;10.86;78.27;100221.94;4923384;29;19930;-81
2024/03/14 04:10:57;;;;;;;;;;;10.60;99.90;;;10.86;78.57;100227.28;4938222;29;19991;-81
2024/03/14 04:13:28;;;;;;;;;;;10.60;99.90;;;10.86;78.51;100223.78;4937681;29;20400;-81
2024/03/14 04:15:56;;;;;;;;;;;10.60;99.90;;;10.83;78.40;100219.69;4937677;29;19930;-82
2024/03/14 04:18:31;;;;;;;;;;;10.30;99.90;;;10.86;78.22;100223.78;4921986;29;19927;-82
2024/03/14 04:20:59;;;;;;;;;;;10.60;99.90;;;10.83;78.10;100228.53;4938298;29;19927;-82
2024/03/14 04:23:29;;;;;;;;;;;10.60;99.90;;;10.80;78.12;100218.31;4937504;29;19927;-81
2024/03/14 04:25:57;;;;;;;;;;;10.50;99.90;;;10.80;78.19;100218.31;4925366;29;20385;-81
2024/03/14 04:28:25;;;;;;;;;;;10.60;99.90;;;10.80;78.10;100220.97;4936649;29;19978;-81
2024/03/14 04:30:53;;;;;;;;;;;10.60;99.90;;;10.80;78.13;100220.97;4938498;29;19978;-81
2024/03/14 04:33:20;;;;;;;;;;;10.60;99.90;;;10.79;78.13;100222.00;4937974;29;19927;-81
2024/03/14 04:35:47;;;;;;;;;;;10.50;99.90;;;10.78;78.15;100220.38;4938662;29;20350;-81
2024/03/14 04:38:14;;;;;;;;;;;10.50;99.90;;;10.78;78.10;100214.19;4936827;29;20005;-81
2024/03/14 04:40:43;;;;;;;;;;;10.50;99.90;;;10.77;78.18;100217.91;4906664;29;19937;-81
2024/03/14 04:43:13;;;;;;;;;;;10.50;99.90;;;10.76;78.00;100222.44;4922025;29;19931;-81
2024/03/14 04:45:40;;;;;;;;;;;10.50;99.90;;;10.76;78.24;100218.94;4921796;29;20387;-81
2024/03/14 04:48:09;;;;;;;;;;;10.50;99.90;;;10.73;77.77;100217.53;4921608;29;19995;-81
2024/03/14 04:50:36;;;;;;;;;;;10.50;99.90;;;10.69;78.17;100216.34;4921832;29;19934;-80
2024/03/14 04:53:04;;;;;;;;;;;10.50;99.90;;;10.71;78.19;100219.59;4922225;29;19985;-81
2024/03/14 04:55:32;;;;;;;;;;;10.50;99.90;;;10.70;78.22;100227.84;4934980;29;19930;-80
2024/03/14 04:57:59;;;;;;;;;;;10.50;99.90;;;10.68;78.34;100221.88;4940949;29;19927;-81
2024/03/14 05:00:27;;;;;;;;;;;10.40;99.90;;;10.67;78.25;100217.59;4924949;29;19934;-80
2024/03/14 05:02:55;;;;;;;;;;;10.40;99.90;;;10.66;78.22;100216.78;4940409;29;19926;-81
2024/03/14 05:05:22;;;;;;;;;;;10.40;99.90;;;10.66;78.47;100218.63;4924505;29;19931;-81
2024/03/14 05:07:50;;;;;;;;;;;10.40;99.90;;;10.68;78.40;100212.03;4940623;29;20033;-81
2024/03/14 05:10:18;;;;;;;;;;;10.40;99.90;;;10.67;78.41;100215.72;4938743;29;19927;-82
2024/03/14 05:12:46;;;;;;;;;;;10.40;99.90;;;10.66;78.35;100211.44;4923543;29;19938;-80
2024/03/14 05:15:14;;;;;;;;;;;10.40;99.90;;;10.65;78.36;100211.66;4940358;29;19966;-80
2024/03/14 05:17:42;;;;;;;;;;;10.40;99.90;;;10.64;78.33;100208.19;4924982;29;19933;-80
2024/03/14 05:20:13;;;;;;;;;;;10.40;99.90;;;10.65;78.39;100207.16;4924274;29;19933;-80
2024/03/14 05:22:40;;;;;;;;;;;10.40;99.90;;;10.66;78.44;100213.28;4939873;29;19966;-81
2024/03/14 05:25:09;;;;;;;;;;;10.40;99.90;;;10.64;78.35;100213.53;4924653;29;19927;-81
2024/03/14 05:27:36;;;;;;;;;;;10.40;99.90;;;10.64;78.21;100208.19;4940261;29;19931;-80
2024/03/14 05:30:05;;;;;;;;;;;10.40;99.90;;;10.63;78.30;100209.19;4941246;29;19927;-83
2024/03/14 05:32:34;;;;;;;;;;;10.40;99.90;;;10.63;78.26;100209.19;4940514;29;19937;-84
2024/03/14 05:35:03;;;;;;;;;;;10.40;99.90;;;10.62;78.31;100204.91;4925559;29;20460;-85
2024/03/14 05:37:31;;;;;;;;;;;10.40;99.90;;;10.63;78.09;100203.88;4940800;29;19931;-85
2024/03/14 05:39:58;;;;;;;;;;;10.30;99.90;;;10.59;77.99;100197.34;4939620;29;19977;-84
2024/03/14 05:42:26;;;;;;;;;;;10.30;99.90;;;10.57;77.95;100194.88;4926711;29;19931;-85
2024/03/14 05:44:55;;;;;;;;;;;10.30;99.90;;;10.57;78.07;100199.41;4940407;29;19970;-86
2024/03/14 05:47:22;;;;;;;;;;;10.30;99.90;;;10.55;77.90;100196.97;4923965;29;20408;-84
2024/03/14 05:49:49;;;;;;;;;;;10.30;99.90;;;10.56;77.99;100200.44;4925381;29;19977;-86
2024/03/14 05:52:17;;;;;;;;;;;10.30;99.90;;;10.55;78.06;100201.50;4942194;29;19930;-86
2024/03/14 05:54:44;;;;;;;;;;;10.30;99.90;;;10.55;78.03;100201.50;4927132;29;19926;-86
2024/03/14 05:57:12;;;;;;;;;;;10.30;99.90;;;10.52;77.78;100193.91;4941470;29;19942;-85
2024/03/14 05:59:39;;;;;;;;;;;10.20;99.90;;;10.50;77.60;100201.31;4928423;29;19933;-82
2024/03/14 06:02:07;;;;;;;;;;;10.20;99.90;;;10.50;77.61;100206.66;4940486;29;19997;-83
2024/03/14 06:04:35;;;;;;;;;;;10.20;99.90;;;10.48;77.64;100192.72;4915529;29;19926;-83
2024/03/14 06:07:02;;;;;;;;;;;10.20;99.90;;;10.47;78.15;100189.22;4924877;29;20572;-82
2024/03/14 06:09:39;;;;;;;;;;;10.20;99.90;;;10.46;78.10;100195.59;4908103;29;19927;-83
2024/03/14 06:12:08;;;;;;;;;;;10.20;99.90;;;10.49;78.08;100195.19;4894803;29;20403;-83
2024/03/14 06:14:35;;;;;;;;;;;10.20;99.90;;;10.50;77.94;100194.16;4910761;29;20005;-83
2024/03/14 06:17:03;;;;;;;;;;;10.20;99.90;;;10.48;77.87;100196.19;4943302;29;19931;-83
2024/03/14 06:19:31;;;;;;;;;;;10.20;99.90;;;10.49;77.95;100189.00;4924905;29;19934;-83
2024/03/14 06:21:58;;;;;;;;;;;10.20;99.90;;;10.47;77.90;100199.91;4908730;29;19927;-84
2024/03/14 06:24:26;;;;;;;;;;;10.20;99.90;;;10.48;77.93;100188.19;4917442;29;19933;-83
2024/03/14 06:26:53;;;;;;;;;;;10.20;99.90;;;10.49;77.98;100189.84;4926406;29;19931;-84
2024/03/14 06:29:22;;;;;;;;;;;10.20;99.90;;;10.51;78.04;100195.75;4943065;29;19927;-83
2024/03/14 06:31:50;;;;;;;;;;;10.20;99.90;;;10.53;78.03;100198.22;4937444;29;19934;-83
2024/03/14 06:34:17;;;;;;;;;;;10.30;99.90;;;10.53;78.13;100195.53;4933856;29;20020;-83
2024/03/14 06:36:45;;;;;;;;;;;10.30;99.90;;;10.55;78.12;100193.50;4892687;29;20392;-83
2024/03/14 06:39:17;;;;;;;;;;;10.30;99.90;;;10.55;78.20;100186.31;4892642;29;19931;-83
2024/03/14 06:41:44;;;;;;;;;;;10.30;99.90;;;10.57;78.32;100199.41;4922666;29;19959;-83
2024/03/14 06:44:13;;;;;;;;;;;10.30;99.90;;;10.58;78.30;100207.19;4924977;29;19954;-83
2024/03/14 06:46:42;;;;;;;;;;;10.30;99.90;;;10.59;78.29;100200.03;4940749;29;20422;-83
2024/03/14 06:49:12;;;;;;;;;;;10.30;99.90;;;10.62;78.40;100204.91;4920205;29;19941;-83
2024/03/14 06:51:40;;;;;;;;;;;10.40;99.90;;;10.64;78.34;100200.19;4936215;29;20392;-83
2024/03/14 06:54:08;;;;;;;;;;;10.40;99.90;;;10.61;78.13;100200.63;4904884;29;19931;-84
2024/03/14 06:56:35;;;;;;;;;;;10.40;99.90;;;10.65;78.25;100201.81;4919266;29;20316;-83
2024/03/14 06:59:04;;;;;;;;;;;10.40;99.90;;;10.65;78.08;100204.47;4919621;29;20060;-83
2024/03/14 07:01:32;;;;;;;;;;;10.50;99.90;;;10.67;78.38;100209.59;4904342;29;19931;-83
2024/03/14 07:03:59;;;;;;;;;;;10.50;99.90;;;10.70;78.61;100201.16;4920201;29;19966;-83
2024/03/14 07:06:27;;;;;;;;;;;10.60;99.90;;;10.76;78.69;100203.75;4929463;29;20392;-83
2024/03/14 07:08:56;;;;;;;;;;;10.60;99.90;;;10.81;78.47;100205.78;4938858;29;19991;-84
2024/03/14 07:11:25;;;;;;;;;;;10.60;99.90;;;10.82;78.25;100202.88;4934037;29;19931;-83
2024/03/14 07:13:54;;;;;;;;;;;10.70;99.90;;;10.87;78.23;100206.75;4922774;29;19931;-84
2024/03/14 07:16:22;;;;;;;;;;;10.70;99.90;;;10.93;78.32;100213.84;4922625;29;20346;-84
2024/03/14 07:18:50;;;;;;;;;;;10.80;99.90;;;10.92;77.98;100214.91;4921809;29;19982;-84
2024/03/14 07:21:17;;;;;;;;;;;10.80;99.90;;;10.93;78.11;100211.19;4925463;29;20030;-83
2024/03/14 07:23:47;;;;;;;;;;;10.90;99.90;;;11.00;78.57;100214.63;4918928;29;19931;-82
2024/03/14 07:26:17;;;;;;;;;;;11.00;99.90;;;10.99;78.17;100210.34;4901891;29;19927;-84
2024/03/14 07:28:46;;;;;;;;;;;11.00;99.90;;;11.00;78.08;100214.63;4934066;29;20289;-83
2024/03/14 07:31:16;;;;;;;;;;;11.10;99.90;;;11.08;78.39;100209.03;4936936;29;19986;-83
2024/03/14 07:33:45;;;;;;;;;;;11.20;99.90;;;11.18;78.65;100209.31;4938094;29;19939;-83
2024/03/14 07:36:15;;;;;;;;;;;11.40;99.90;;;11.28;78.94;100206.94;4922650;29;19927;-83
2024/03/14 07:38:43;;;;;;;;;;;11.50;99.90;;;11.38;79.02;100211.78;4937934;29;19951;-83
2024/03/14 07:41:11;;;;;;;;;;;11.60;99.90;;;11.39;78.10;100208.06;4933364;29;19931;-83
2024/03/14 07:43:39;;;;;;;;;;;11.60;99.90;;;11.36;77.28;100205.81;4919151;29;20405;-83
2024/03/14 07:46:08;;;;;;;;;;;11.60;99.90;;;11.37;77.27;100214.66;4918818;29;19927;-83
2024/03/14 07:48:37;;;;;;;;;;;11.60;99.90;;;11.37;77.13;100215.50;4918393;29;20257;-83
2024/03/14 07:51:07;;;;;;;;;;;11.60;99.90;;;11.42;77.65;100214.78;4918590;29;19934;-83
2024/03/14 07:53:34;;;;;;;;;;;11.60;99.90;;;11.49;77.63;100215.53;4925440;29;19949;-84
2024/03/14 07:56:01;;;;;;;;;;;11.70;99.90;;;11.53;77.58;100219.41;4920669;29;20434;-82
2024/03/14 07:58:29;;;;;;;;;;;11.70;99.90;;;11.58;77.67;100223.03;4922452;29;19927;-82
2024/03/14 08:00:56;;;;;;;;;;;11.80;99.90;;;11.64;77.83;100221.31;4934370;29;20392;-81
2024/03/14 08:03:24;;;;;;;;;;;11.90;99.90;;;11.67;76.97;100226.22;4919216;29;19967;-84
2024/03/14 08:05:51;;;;;;;;;;;11.90;99.90;;;11.69;77.08;100221.47;4918557;29;19934;-83
2024/03/14 08:08:18;;;;;;;;;;;11.90;99.90;;;11.74;76.80;100221.59;4922036;29;20393;-83
2024/03/14 08:10:46;;;;;;;;;;;12.00;99.90;;;11.74;76.09;100220.78;4903748;29;19927;-89
2024/03/14 08:13:20;;;;;;;;;;;12.00;99.90;;;11.76;75.94;100222.22;4917155;29;19973;-86
2024/03/14 08:15:53;;;;;;;;;;;12.00;99.90;;;11.85;75.81;100228.06;4916887;29;19927;-83
2024/03/14 08:18:21;;;;;;;;;;;12.10;99.90;;;11.92;75.94;100225.34;4917968;29;19934;-83
2024/03/14 08:20:50;;;;;;;;;;;12.20;99.90;;;12.05;76.20;100219.78;4923785;29;20390;-83
2024/03/14 08:23:17;;;;;;;;;;;12.40;99.90;;;12.15;75.94;100224.59;4921701;29;20017;-83
2024/03/14 08:25:46;;;;;;;;;;;12.40;99.90;;;12.24;75.44;100216.00;4936757;29;19938;-83
2024/03/14 08:28:13;;;;;;;;;;;12.50;99.90;;;12.31;75.07;100218.59;4927316;29;19970;-84
2024/03/14 08:30:44;;;;;;;;;;;12.60;99.90;;;12.31;75.12;100218.59;4918170;29;19950;-84
2024/03/14 08:33:13;;;;;;;;;;;12.60;99.90;;;12.33;75.42;100213.84;4917914;29;19934;-83
2024/03/14 08:35:42;;;;;;;;;;;12.60;99.90;;;12.34;75.31;100210.91;4918266;29;20384;-84
2024/03/14 08:38:12;;;;;;;;;;;12.60;99.90;;;12.38;74.36;100221.97;4908795;29;19934;-84
2024/03/14 08:40:41;;;;;;;;;;;12.70;99.90;;;12.38;74.26;100214.78;4936733;29;19927;-84
2024/03/14 08:43:09;;;;;;;;;;;12.70;99.90;;;12.43;74.04;100218.63;4936731;29;20472;-83
2024/03/14 08:45:36;;;;;;;;;;;12.70;99.90;;;12.43;73.90;100207.91;4936667;29;19927;-83
2024/03/14 08:48:07;;;;;;;;;;;12.70;99.90;;;12.45;73.16;100221.91;4937137;29;19939;-82
2024/03/14 08:50:35;;;;;;;;;;;12.70;99.90;;;12.51;74.11;100215.63;4937565;29;19938;-82
2024/03/14 08:53:02;;;;;;;;;;;12.80;99.90;;;12.49;73.27;100221.22;4937738;29;19954;-82
2024/03/14 08:55:34;;;;;;;;;;;12.80;99.90;;;12.57;74.06;100220.03;4936577;29;19973;-83
2024/03/14 08:58:03;;;;;;;;;;;12.90;99.90;;;12.66;74.82;100218.66;4934592;29;19978;-84
2024/03/14 09:00:31;;;;;;;;;;;13.00;99.90;;;12.69;74.24;100215.53;4926059;29;19927;-83
2024/03/14 09:03:01;;;;;;;;;;;13.00;99.90;;;12.68;72.84;100219.25;4932458;29;19931;-83
2024/03/14 09:05:29;;;;;;;;;;;13.00;99.90;;;12.74;73.45;100214.84;4915957;29;19927;-83
2024/03/14 09:07:57;;;;;;;;;;;13.00;99.90;;;12.76;73.64;100210.88;4885538;29;19927;-83
2024/03/14 09:10:25;;;;;;;;;;;13.00;99.90;;;12.77;73.18;100211.69;4918253;29;19935;-83
2024/03/14 09:12:53;;;;;;;;;;;13.10;99.90;;;12.74;71.42;100206.81;4918219;29;20413;-82
2024/03/14 09:15:22;;;;;;;;;;;13.10;99.90;;;12.67;71.82;100203.44;4918474;29;19979;-83
2024/03/14 09:17:50;;;;;;;;;;;13.00;99.90;;;12.69;71.93;100204.00;4918137;29;20431;-83
2024/03/14 09:20:19;;;;;;;;;;;13.00;99.90;;;12.68;70.39;100200.50;4935516;29;19926;-83
2024/03/14 09:22:53;;;;;;;;;;;13.00;99.90;;;12.72;72.39;100195.50;4931911;29;19927;-83
2024/03/14 09:25:21;;;;;;;;;;;13.00;99.90;;;12.75;71.19;100200.41;4933280;29;19927;-83
2024/03/14 09:27:48;;;;;;;;;;;13.10;99.90;;;12.72;70.87;100193.66;4925493;29;19927;-84
2024/03/14 09:30:17;;;;;;;;;;;13.10;99.90;;;12.73;71.09;100195.28;4942080;29;19934;-84
2024/03/14 09:32:45;;;;;;;;;;;13.00;99.90;;;12.78;72.15;100192.72;4934104;29;19935;-83
2024/03/14 09:35:15;;;;;;;;;;;13.10;99.90;;;12.84;70.92;100191.00;4904370;29;20305;-83
2024/03/14 09:37:44;;;;;;;;;;;13.10;99.90;;;12.92;71.99;100179.91;4920247;29;20013;-83
2024/03/14 09:40:13;;;;;;;;;;;13.20;99.90;;;12.99;71.75;100187.84;4919700;29;19966;-84
2024/03/14 09:42:40;;;;;;;;;;;13.30;99.90;;;13.06;71.16;100180.50;4920113;29;19928;-83
2024/03/14 09:45:12;;;;;;;;;;;13.40;99.90;;;13.10;70.87;100182.47;4921034;29;19978;-83
2024/03/14 09:47:40;;;;;;;;;;;13.50;99.90;;;13.22;70.32;100179.00;4906926;29;19931;-84
2024/03/14 09:50:08;;;;;;;;;;;13.60;99.90;;;13.16;69.57;100183.41;4923147;29;20289;-84
2024/03/14 09:52:39;;;;;;;;;;;13.60;99.90;;;13.21;70.89;100178.16;4923147;29;19927;-84
2024/03/14 09:55:08;;;;;;;;;;;13.60;99.90;;;13.23;69.72;100176.09;4922985;29;19927;-84
2024/03/14 09:57:36;;;;;;;;;;;13.60;99.90;;;13.24;70.46;100177.72;4906920;29;19927;-84
2024/03/14 10:00:03;;;;;;;;;;;13.60;99.90;;;13.25;69.56;100181.22;4921618;29;19934;-84
2024/03/14 10:02:39;;;;;;;;;;;13.60;99.90;;;13.22;70.21;100177.13;4939707;29;20424;-84
2024/03/14 10:05:10;;;;;;;;;;;13.60;99.90;;;13.21;68.94;100177.34;4941397;29;19927;-84
2024/03/14 10:07:38;;;;;;;;;;;13.60;99.90;;;13.24;69.08;100171.56;4939520;29;19935;-84
2024/03/14 10:10:06;;;;;;;;;;;13.60;99.90;;;13.23;69.29;100175.28;4939559;29;19930;-84
2024/03/14 10:12:33;;;;;;;;;;;13.60;99.90;;;13.29;69.73;100169.78;4941605;29;19927;-84
2024/03/14 10:15:03;;;;;;;;;;;13.70;99.90;;;13.30;69.33;100168.72;4926316;29;19962;-84
2024/03/14 10:17:31;;;;;;;;;;;13.70;99.90;;;13.44;70.02;100166.59;4941527;29;20455;-83
2024/03/14 10:19:59;;;;;;;;;;;13.80;99.90;;;13.54;69.02;100168.66;4942730;29;20372;-84
2024/03/14 10:22:27;;;;;;;;;;;13.90;99.90;;;13.60;68.23;100165.03;4923084;29;20364;-83
2024/03/14 10:24:54;;;;;;;;;;;14.00;99.90;;;13.63;68.26;100167.25;4938599;29;19974;-83
2024/03/14 10:27:22;;;;;;;;;;;14.00;99.90;;;13.63;68.01;100168.06;4938838;29;19927;-83
2024/03/14 10:29:50;;;;;;;;;;;14.00;99.90;;;13.63;68.16;100161.88;4922952;29;20369;-84
2024/03/14 10:32:17;;;;;;;;;;;14.00;99.90;;;13.62;67.78;100163.75;4922279;29;20353;-84
2024/03/14 10:34:45;;;;;;;;;;;14.00;99.90;;;13.61;67.99;100169.34;4939131;29;19938;-84
2024/03/14 10:37:13;;;;;;;;;;;13.90;99.90;;;13.57;67.12;100160.16;4939686;29;19982;-83
2024/03/14 10:39:42;;;;;;;;;;;13.90;99.90;;;13.54;67.43;100155.28;4937005;29;20427;-84
2024/03/14 10:42:09;;;;;;;;;;;13.90;99.90;;;13.52;68.15;100155.53;4921603;29;19927;-84
2024/03/14 10:44:38;;;;;;;;;;;13.80;99.90;;;13.56;68.93;100153.16;4921044;29;20426;-84
2024/03/14 10:47:06;;;;;;;;;;;13.80;99.90;;;13.59;69.10;100153.50;4906245;29;19931;-84
2024/03/14 10:49:37;;;;;;;;;;;13.90;99.90;;;13.67;68.39;100146.16;4921072;29;19931;-83
2024/03/14 10:52:10;;;;;;;;;;;13.90;99.90;;;13.67;67.66;100144.28;4921536;29;20345;-84
2024/03/14 10:54:38;;;;;;;;;;;13.90;99.90;;;13.72;68.58;100141.69;4920700;29;19927;-84
2024/03/14 10:57:05;;;;;;;;;;;14.00;99.90;;;13.71;67.84;100139.22;4920394;29;19935;-83
2024/03/14 10:59:33;;;;;;;;;;;14.00;99.90;;;13.71;68.83;100134.69;4924382;29;20380;-84
2024/03/14 11:02:01;;;;;;;;;;;14.00;99.90;;;13.72;67.65;100140.88;4939605;29;20365;-84
2024/03/14 11:04:28;;;;;;;;;;;14.00;99.90;;;13.75;68.30;100140.38;4937604;29;19934;-83
2024/03/14 11:06:55;;;;;;;;;;;14.00;99.90;;;13.86;68.64;100132.31;4924007;29;19934;-83
2024/03/14 11:09:23;;;;;;;;;;;14.10;99.90;;;13.96;68.23;100120.09;4939815;29;19927;-84
2024/03/14 11:11:51;;;;;;;;;;;14.30;99.90;;;14.03;66.85;100123.47;4939976;29;19948;-84
2024/03/14 11:14:18;;;;;;;;;;;14.30;99.90;;;13.96;65.81;100131.69;4940670;29;20285;-84